createdAt,value
2019-01-05T00:02:06.166Z,2.50
2019-01-05T00:04:40.738Z,2.60
2019-01-05T00:07:28.496Z,2.70
2019-01-05T00:10:02.699Z,2.60
2019-01-05T00:12:39.807Z,2.50
2019-01-05T00:15:11.314Z,2.50
2019-01-05T00:17:55.117Z,2.50
2019-01-05T00:20:27.026Z,2.50
2019-01-05T00:23:07.622Z,2.40
2019-01-05T00:25:56.986Z,2.50
2019-01-05T00:28:30.017Z,2.50
2019-01-05T00:31:10.428Z,2.50
2019-01-05T00:33:43.037Z,2.50
2019-01-05T00:36:15.250Z,2.50
2019-01-05T00:38:51.514Z,2.40
2019-01-05T00:41:39.724Z,2.50
2019-01-05T00:44:11.718Z,2.50
2019-01-05T00:46:49.813Z,2.50
2019-01-05T00:49:27.405Z,2.40
2019-01-05T00:52:11.999Z,2.40
2019-01-05T00:54:44.431Z,2.40
2019-01-05T00:57:19.396Z,2.40
2019-01-05T01:00:03.437Z,2.10
2019-01-05T01:02:44.417Z,2.20
2019-01-05T01:05:27.726Z,2.10
2019-01-05T01:08:05.089Z,2.20
2019-01-05T01:10:46.677Z,2.30
2019-01-05T01:13:27.317Z,2.40
2019-01-05T01:16:10.909Z,2.40
2019-01-05T01:18:45.001Z,2.40
2019-01-05T01:21:32.627Z,2.50
2019-01-05T01:24:20.816Z,2.50
2019-01-05T01:26:52.426Z,2.50
2019-01-05T01:29:40.541Z,2.50
2019-01-05T01:32:12.057Z,2.50
2019-01-05T01:34:46.650Z,2.40
2019-01-05T01:37:21.066Z,2.30
2019-01-05T01:39:54.589Z,2.20
2019-01-05T01:42:29.161Z,2.30
2019-01-05T01:45:06.810Z,2.30
2019-01-05T01:47:55.055Z,2.20
2019-01-05T01:50:42.210Z,2.10
2019-01-05T01:53:20.196Z,2.30
2019-01-05T01:55:57.198Z,2.40
2019-01-05T01:58:31.540Z,2.40
2019-01-05T02:01:09.305Z,2.40
2019-01-05T02:03:41.104Z,2.50
2019-01-05T02:06:12.870Z,2.40
2019-01-05T02:08:49.340Z,2.30
2019-01-05T02:11:41.776Z,2.20
2019-01-05T02:14:27.925Z,2.20
2019-01-05T02:17:08.141Z,2.30
2019-01-05T02:19:54.572Z,2.20
2019-01-05T02:22:58.816Z,2.20
2019-01-05T02:25:42.109Z,2.20
2019-01-05T02:28:31.485Z,2.20
2019-01-05T02:31:17.495Z,2.20
2019-01-05T02:34:03.728Z,2.30
2019-01-05T02:36:55.700Z,2.30
2019-01-05T02:39:35.820Z,2.30
2019-01-05T02:42:35.140Z,2.10
2019-01-05T02:45:41.436Z,2.20
2019-01-05T02:48:41.269Z,2.30
2019-01-05T02:51:43.107Z,2.30
2019-01-05T02:54:36.345Z,2.50
2019-01-05T02:57:10.711Z,2.40
2019-01-05T03:00:17.689Z,2.50
2019-01-05T03:03:09.957Z,2.50
2019-01-05T03:06:05.366Z,2.50
2019-01-05T03:08:54.610Z,2.60
2019-01-05T03:11:48.382Z,2.60
2019-01-05T03:14:46.365Z,2.70
2019-01-05T03:17:38.633Z,2.60
2019-01-05T03:20:21.893Z,2.50
2019-01-05T03:23:28.178Z,2.60
2019-01-05T03:26:25.180Z,2.50
2019-01-05T03:29:33.826Z,2.30
2019-01-05T03:32:19.782Z,2.30
2019-01-05T03:35:02.540Z,2.50
2019-01-05T03:37:56.547Z,2.50
2019-01-05T03:40:30.885Z,2.50
2019-01-05T03:43:33.306Z,2.70
2019-01-05T03:46:28.368Z,2.60
2019-01-05T03:49:17.463Z,2.70
2019-01-05T03:52:29.749Z,2.70
2019-01-05T03:55:29.617Z,2.80
2019-01-05T03:58:09.455Z,2.80
2019-01-05T04:01:13.817Z,2.70
2019-01-05T04:04:09.036Z,2.70
2019-01-05T04:07:11.697Z,2.60
2019-01-05T04:10:05.685Z,2.60
2019-01-05T04:13:02.081Z,2.70
2019-01-05T04:15:57.260Z,2.70
2019-01-05T04:18:59.993Z,2.60
2019-01-05T04:21:43.235Z,2.60
2019-01-05T04:24:29.213Z,2.60
2019-01-05T04:27:28.702Z,2.60
2019-01-05T04:30:31.680Z,2.50
2019-01-05T04:33:28.502Z,2.40
2019-01-05T04:36:14.369Z,2.40
2019-01-05T04:39:20.017Z,2.30
2019-01-05T04:42:14.899Z,2.40
2019-01-05T04:45:21.169Z,2.30
2019-01-05T04:48:28.907Z,2.40
2019-01-05T04:51:33.437Z,2.60
2019-01-05T04:54:26.957Z,2.30
2019-01-05T04:57:32.900Z,2.30
2019-01-05T05:00:35.685Z,2.30
2019-01-05T05:03:42.021Z,2.10
2019-01-05T05:06:56.930Z,2.20
2019-01-05T05:09:40.435Z,2.30
2019-01-05T05:12:26.742Z,2.30
2019-01-05T05:15:51.608Z,2.30
2019-01-05T05:18:37.684Z,2.10
2019-01-05T05:21:34.522Z,2.10
2019-01-05T05:24:14.609Z,2.20
2019-01-05T05:27:22.161Z,2.20
2019-01-05T05:30:22.408Z,2.20
2019-01-05T05:33:23.757Z,2.30
2019-01-05T05:36:25.197Z,2.10
2019-01-05T05:39:32.694Z,2.20
2019-01-05T05:42:23.349Z,2.70
2019-01-05T05:45:17.363Z,2.90
2019-01-05T05:47:54.412Z,2.80
2019-01-05T05:50:53.282Z,2.80
2019-01-05T05:53:41.970Z,2.70
2019-01-05T05:56:54.259Z,2.70
2019-01-05T06:00:07.709Z,2.70
2019-01-05T06:02:58.344Z,2.50
2019-01-05T06:05:50.850Z,2.30
2019-01-05T06:08:47.625Z,2.30
2019-01-05T06:11:37.007Z,2.40
2019-01-05T06:14:30.641Z,2.40
2019-01-05T06:17:20.058Z,2.40
2019-01-05T06:20:22.477Z,2.20
2019-01-05T06:23:20.466Z,2.10
2019-01-05T06:26:09.164Z,2.10
2019-01-05T06:29:10.442Z,2.20
2019-01-05T06:32:22.268Z,2.00
2019-01-05T06:35:05.164Z,2.00
2019-01-05T06:37:50.457Z,1.90
2019-01-05T06:41:15.849Z,1.90
2019-01-05T06:44:34.160Z,1.90
2019-01-05T06:47:32.444Z,2.00
2019-01-05T06:50:36.965Z,1.90
2019-01-05T06:53:22.977Z,2.00
2019-01-05T06:56:16.221Z,1.90
2019-01-05T06:59:06.874Z,1.90
2019-01-05T07:02:20.793Z,2.10
2019-01-05T07:05:10.185Z,3.10
2019-01-05T07:08:05.677Z,3.90
2019-01-05T07:10:51.465Z,4.20
2019-01-05T07:13:44.984Z,3.30
2019-01-05T07:16:38.429Z,2.70
2019-01-05T07:19:29.273Z,2.30
2019-01-05T07:22:18.941Z,2.40
2019-01-05T07:25:22.177Z,2.40
2019-01-05T07:28:46.284Z,2.20
2019-01-05T07:31:56.697Z,2.20
2019-01-05T07:35:00.528Z,2.20
2019-01-05T07:38:04.743Z,2.10
2019-01-05T07:41:19.477Z,2.10
2019-01-05T07:43:56.342Z,2.30
2019-01-05T07:47:10.563Z,2.40
2019-01-05T07:50:11.945Z,2.30
2019-01-05T07:53:07.418Z,2.20
2019-01-05T07:56:18.009Z,2.00
2019-01-05T07:59:00.653Z,1.90
2019-01-05T08:01:43.763Z,2.00
2019-01-05T08:04:46.233Z,2.00
2019-01-05T08:07:26.572Z,2.00
2019-01-05T08:10:28.585Z,2.10
2019-01-05T08:13:29.705Z,2.10
2019-01-05T08:16:47.786Z,2.10
2019-01-05T08:23:07.801Z,2.00
2019-01-05T08:26:07.965Z,1.90
2019-01-05T08:29:04.981Z,1.80
2019-01-05T08:32:13.550Z,1.90
2019-01-05T08:35:19.757Z,1.90
2019-01-05T08:38:12.865Z,2.10
2019-01-05T08:40:49.925Z,1.90
2019-01-05T08:43:56.949Z,2.00
2019-01-05T08:47:13.534Z,2.00
2019-01-05T08:50:22.328Z,1.80
2019-01-05T08:53:40.196Z,1.70
2019-01-05T08:56:44.733Z,1.80
2019-01-05T08:59:56.925Z,1.80
2019-01-05T09:02:56.869Z,1.80
2019-01-05T09:06:07.048Z,1.90
2019-01-05T09:09:10.017Z,1.80
2019-01-05T09:11:52.994Z,1.70
2019-01-05T09:15:02.157Z,1.80
2019-01-05T09:18:12.190Z,1.70
2019-01-05T09:20:49.201Z,1.90
2019-01-05T09:23:45.141Z,1.80
2019-01-05T09:26:39.009Z,1.90
2019-01-05T09:29:25.236Z,1.90
2019-01-05T09:32:32.441Z,1.90
2019-01-05T09:35:47.945Z,2.00
2019-01-05T09:38:55.717Z,1.80
2019-01-05T09:42:09.417Z,2.00
2019-01-05T09:45:18.141Z,2.20
2019-01-05T09:48:25.485Z,2.20
2019-01-05T09:51:17.785Z,2.10
2019-01-05T09:54:09.796Z,2.10
2019-01-05T09:57:08.317Z,2.10
2019-01-05T10:00:08.130Z,2.20
2019-01-05T10:03:11.332Z,2.20
2019-01-05T10:06:17.497Z,2.10
2019-01-05T10:09:23.557Z,2.10
2019-01-05T10:12:20.457Z,2.10
2019-01-05T10:15:27.399Z,2.10
2019-01-05T10:18:34.641Z,2.90
2019-01-05T10:21:43.714Z,3.80
2019-01-05T10:24:49.283Z,4.10
2019-01-05T10:27:32.265Z,3.00
2019-01-05T10:30:51.606Z,2.50
2019-01-05T10:33:46.662Z,2.20
2019-01-05T10:37:00.026Z,2.10
2019-01-05T10:40:22.929Z,2.20
2019-01-05T10:43:16.861Z,2.20
2019-01-05T10:46:18.265Z,2.20
2019-01-05T10:49:31.376Z,2.10
2019-01-05T10:52:23.335Z,2.20
2019-01-05T10:55:03.281Z,2.20
2019-01-05T10:58:01.850Z,2.10
2019-01-05T11:01:13.929Z,2.10
2019-01-05T11:04:07.797Z,2.10
2019-01-05T11:07:03.428Z,2.20
2019-01-05T11:09:49.753Z,2.10
2019-01-05T11:13:06.257Z,2.20
2019-01-05T11:16:03.249Z,2.30
2019-01-05T11:19:07.872Z,2.30
2019-01-05T11:22:10.541Z,2.30
2019-01-05T11:25:11.797Z,2.40
2019-01-05T11:28:26.947Z,2.30
2019-01-05T11:31:51.004Z,2.30
2019-01-05T11:34:46.766Z,2.30
2019-01-05T11:37:51.176Z,2.30
2019-01-05T11:41:03.317Z,2.30
2019-01-05T11:44:06.434Z,2.40
2019-01-05T11:47:15.769Z,2.50
2019-01-05T11:50:32.849Z,2.40
2019-01-05T11:53:41.898Z,2.50
2019-01-05T11:56:34.329Z,2.50
2019-01-05T11:59:32.941Z,2.40
2019-01-05T12:02:32.664Z,2.40
2019-01-05T12:05:41.552Z,2.30
2019-01-05T12:08:56.775Z,2.30
2019-01-05T12:11:47.793Z,3.10
2019-01-05T12:14:50.497Z,3.70
2019-01-05T12:17:40.037Z,3.00
2019-01-05T12:20:53.533Z,2.80
2019-01-05T12:23:58.112Z,2.60
2019-01-05T12:26:54.997Z,2.50
2019-01-05T12:30:07.089Z,2.40
2019-01-05T12:32:50.213Z,2.30
2019-01-05T12:35:54.564Z,2.40
2019-01-05T12:38:49.356Z,2.50
2019-01-05T12:41:50.997Z,2.40
2019-01-05T12:44:52.261Z,2.30
2019-01-05T12:48:12.306Z,2.30
2019-01-05T12:51:16.938Z,2.20
2019-01-05T12:54:10.413Z,2.30
2019-01-05T12:57:08.162Z,2.40
2019-01-05T13:00:16.795Z,2.30
2019-01-05T13:03:28.793Z,2.30
2019-01-05T13:06:44.253Z,2.20
2019-01-05T13:09:24.437Z,2.30
2019-01-05T13:12:04.183Z,2.20
2019-01-05T13:14:53.422Z,2.20
2019-01-05T13:17:27.782Z,2.20
2019-01-05T13:20:29.354Z,2.30
2019-01-05T13:23:39.846Z,2.30
2019-01-05T13:26:37.829Z,2.30
2019-01-05T13:29:47.164Z,2.10
2019-01-05T13:32:44.111Z,2.20
2019-01-05T13:35:24.343Z,2.20
2019-01-05T13:38:29.042Z,2.20
2019-01-05T13:41:38.283Z,2.20
2019-01-05T13:44:41.325Z,4.30
2019-01-05T13:47:36.633Z,4.40
2019-01-05T13:50:47.181Z,4.50
2019-01-05T13:53:33.284Z,4.20
2019-01-05T13:56:09.969Z,3.40
2019-01-05T13:58:47.165Z,3.00
2019-01-05T14:01:18.421Z,2.70
2019-01-05T14:03:55.194Z,2.70
2019-01-05T14:06:29.165Z,2.70
2019-01-05T14:09:16.722Z,2.70
2019-01-05T14:11:48.085Z,2.60
2019-01-05T14:14:35.821Z,2.60
2019-01-05T14:17:22.397Z,2.50
2019-01-05T14:20:11.647Z,2.60
2019-01-05T14:22:47.133Z,2.70
2019-01-05T14:25:34.980Z,2.70
2019-01-05T14:28:18.259Z,2.60
2019-01-05T14:30:49.589Z,2.70
2019-01-05T14:33:20.874Z,2.70
2019-01-05T14:36:08.644Z,2.60
2019-01-05T14:38:54.793Z,2.50
2019-01-05T14:41:26.061Z,2.50
2019-01-05T14:44:09.402Z,2.60
2019-01-05T14:46:51.221Z,2.50
2019-01-05T14:49:37.387Z,2.60
2019-01-05T14:52:08.641Z,2.50
2019-01-05T14:54:52.237Z,2.50
2019-01-05T14:57:40.069Z,2.60
2019-01-05T15:00:18.646Z,2.50
2019-01-05T15:03:01.789Z,2.50
2019-01-05T15:05:38.849Z,2.60
2019-01-05T15:08:26.583Z,2.70
2019-01-05T15:11:03.833Z,2.70
2019-01-05T15:13:47.050Z,2.70
2019-01-05T15:16:24.587Z,2.80
2019-01-05T15:18:55.879Z,2.70
2019-01-05T15:21:43.387Z,2.70
2019-01-05T15:24:20.637Z,2.80
2019-01-05T15:26:54.674Z,2.70
2019-01-05T15:29:41.017Z,2.70
2019-01-05T15:32:24.525Z,2.60
2019-01-05T15:35:05.069Z,2.70
2019-01-05T15:37:45.461Z,2.70
2019-01-05T15:40:16.747Z,2.70
2019-01-05T15:42:48.012Z,2.70
2019-01-05T15:45:25.161Z,2.70
2019-01-05T15:48:05.027Z,2.70
2019-01-05T15:50:39.085Z,2.70
2019-01-05T15:53:10.355Z,2.60
2019-01-05T15:55:57.909Z,2.60
2019-01-05T15:58:45.848Z,2.60
2019-01-05T16:01:32.985Z,2.60
2019-01-05T16:04:04.273Z,2.50
2019-01-05T16:06:52.127Z,2.60
2019-01-05T16:09:29.821Z,2.60
2019-01-05T16:12:16.553Z,2.60
2019-01-05T16:14:50.787Z,2.50
2019-01-05T16:17:39.845Z,2.50
2019-01-05T16:20:17.753Z,2.50
2019-01-05T16:22:49.021Z,2.50
2019-01-05T16:25:23.119Z,2.50
2019-01-05T16:27:57.341Z,2.60
2019-01-05T16:30:28.689Z,2.70
2019-01-05T16:33:09.109Z,2.70
2019-01-05T16:35:52.781Z,2.60
2019-01-05T16:38:26.477Z,2.60
2019-01-05T16:41:09.709Z,2.60
2019-01-05T16:43:46.708Z,2.60
2019-01-05T16:46:34.249Z,2.60
2019-01-05T16:49:23.410Z,2.60
2019-01-05T16:51:55.034Z,2.60
2019-01-05T16:54:42.998Z,2.70
2019-01-05T16:57:14.265Z,2.70
2019-01-05T16:59:51.333Z,2.80
2019-01-05T17:02:22.837Z,2.80
2019-01-05T17:05:00.223Z,2.80
2019-01-05T17:07:47.626Z,2.70
2019-01-05T17:10:24.881Z,2.70
2019-01-05T17:13:02.305Z,2.70
2019-01-05T17:15:49.720Z,2.70
2019-01-05T17:18:29.934Z,2.70
2019-01-05T17:21:07.414Z,3.10
2019-01-05T17:23:54.857Z,3.00
2019-01-05T17:26:26.141Z,2.60
2019-01-05T17:29:06.242Z,2.70
2019-01-05T17:31:53.769Z,2.60
2019-01-05T17:34:41.541Z,2.60
2019-01-05T17:37:12.841Z,2.60
2019-01-05T17:39:53.409Z,2.60
2019-01-05T17:42:41.064Z,2.60
2019-01-05T17:45:28.751Z,2.70
2019-01-05T17:48:12.254Z,2.60
2019-01-05T17:50:46.898Z,2.60
2019-01-05T17:53:18.510Z,2.60
2019-01-05T17:55:52.598Z,2.60
2019-01-05T17:58:44.744Z,2.50
2019-01-05T18:01:32.266Z,2.50
2019-01-05T18:04:19.833Z,2.50
2019-01-05T18:06:51.213Z,2.50
2019-01-05T18:09:31.471Z,2.60
2019-01-05T18:12:08.683Z,2.60
2019-01-05T18:14:48.884Z,2.60
2019-01-05T18:17:20.173Z,2.60
2019-01-05T18:19:51.842Z,2.70
2019-01-05T18:22:41.347Z,2.70
2019-01-05T18:25:15.121Z,2.50
2019-01-05T18:28:02.717Z,2.60
2019-01-05T18:30:50.526Z,3.90
2019-01-05T18:33:30.740Z,3.60
2019-01-05T18:36:02.004Z,3.20
2019-01-05T18:38:42.091Z,3.10
2019-01-05T18:41:31.386Z,3.00
2019-01-05T18:44:18.826Z,2.90
2019-01-05T18:46:55.565Z,3.00
2019-01-05T18:49:32.456Z,2.90
2019-01-05T18:52:06.374Z,2.90
2019-01-05T18:54:43.490Z,2.90
2019-01-05T18:57:14.756Z,2.80
2019-01-05T18:59:48.944Z,2.80
2019-01-05T19:02:22.910Z,2.90
2019-01-05T19:05:10.731Z,3.00
2019-01-05T19:08:00.058Z,3.00
2019-01-05T19:10:47.516Z,2.90
2019-01-05T19:13:34.810Z,3.00
2019-01-05T19:16:15.360Z,2.90
2019-01-05T19:18:52.401Z,3.00
2019-01-05T19:21:29.252Z,3.00
2019-01-05T19:24:00.514Z,3.00
2019-01-05T19:26:48.238Z,3.00
2019-01-05T19:29:31.618Z,2.90
2019-01-05T19:32:02.873Z,2.90
2019-01-05T19:34:36.834Z,2.90
2019-01-05T19:37:08.097Z,2.90
2019-01-05T19:39:55.637Z,3.00
2019-01-05T19:42:45.220Z,2.90
2019-01-05T19:45:32.893Z,2.90
2019-01-05T19:48:16.022Z,3.00
2019-01-05T19:50:56.086Z,3.00
2019-01-05T19:53:45.450Z,3.00
2019-01-05T19:56:28.341Z,2.90
2019-01-05T19:59:17.891Z,3.00
2019-01-05T20:01:49.166Z,4.20
2019-01-05T20:04:29.117Z,4.30
2019-01-05T20:07:06.207Z,3.80
2019-01-05T20:09:37.496Z,3.50
2019-01-05T20:12:09.197Z,3.40
2019-01-05T20:14:43.577Z,3.30
2019-01-05T20:17:23.771Z,3.30
2019-01-05T20:19:55.423Z,3.20
2019-01-05T20:22:32.178Z,3.10
2019-01-05T20:25:03.619Z,3.10
2019-01-05T20:27:35.197Z,3.10
2019-01-05T20:30:18.630Z,3.10
2019-01-05T20:33:06.562Z,3.10
2019-01-05T20:35:38.523Z,3.10
2019-01-05T20:38:26.309Z,3.10
2019-01-05T20:41:14.394Z,3.10
2019-01-05T20:43:48.357Z,3.10
2019-01-05T20:46:23.131Z,3.40
2019-01-05T20:48:54.887Z,3.60
2019-01-05T20:51:35.415Z,3.50
2019-01-05T20:54:19.390Z,3.40
2019-01-05T20:57:07.022Z,3.30
2019-01-05T20:59:55.569Z,3.20
2019-01-05T21:02:30.178Z,3.10
2019-01-05T21:05:18.004Z,3.10
2019-01-05T21:07:49.373Z,3.20
2019-01-05T21:10:38.872Z,3.20
2019-01-05T21:13:26.840Z,3.20
2019-01-05T21:16:15.740Z,3.20
2019-01-05T21:19:17.404Z,3.20
2019-01-05T21:22:05.854Z,3.00
2019-01-05T21:24:51.247Z,3.10
2019-01-05T21:27:28.814Z,3.10
2019-01-05T21:30:18.701Z,3.00
2019-01-05T21:32:51.781Z,3.10
2019-01-05T21:35:27.429Z,3.10
2019-01-05T21:38:18.132Z,3.00
2019-01-05T21:41:05.893Z,3.00
2019-01-05T21:43:43.056Z,3.00
2019-01-05T21:46:17.432Z,3.20
2019-01-05T21:48:51.443Z,3.60
2019-01-05T21:51:25.428Z,3.40
2019-01-05T21:54:04.122Z,3.30
2019-01-05T21:56:37.942Z,3.30
2019-01-05T21:59:26.044Z,3.30
2019-01-05T22:02:18.634Z,3.30
2019-01-05T22:05:06.152Z,3.20
2019-01-05T22:07:55.648Z,3.10
2019-01-05T22:10:27.344Z,3.10
2019-01-05T22:13:08.107Z,3.20
2019-01-05T22:15:56.555Z,3.20
2019-01-05T22:18:32.024Z,3.20
2019-01-05T22:21:11.518Z,3.20
2019-01-05T22:23:52.445Z,3.10
2019-01-05T22:26:42.818Z,3.20
2019-01-05T22:29:21.411Z,3.20
2019-01-05T22:32:02.390Z,3.20
2019-01-05T22:34:46.844Z,3.20
2019-01-05T22:37:18.295Z,3.10
2019-01-05T22:43:22.016Z,3.60
2019-01-05T22:46:11.081Z,3.40
2019-01-05T22:48:54.254Z,3.30
2019-01-05T22:51:43.365Z,3.30
2019-01-05T22:54:30.030Z,3.20
2019-01-05T22:57:07.453Z,3.30
2019-01-05T22:59:47.765Z,3.30
2019-01-05T23:02:31.305Z,3.20
2019-01-05T23:05:08.547Z,3.30
2019-01-05T23:07:55.972Z,3.30
2019-01-05T23:10:45.552Z,3.30
2019-01-05T23:13:22.940Z,3.20
2019-01-05T23:15:54.211Z,3.30
2019-01-05T23:18:28.419Z,3.30
2019-01-05T23:21:15.243Z,3.20
2019-01-05T23:23:47.025Z,3.20
2019-01-05T23:26:36.519Z,3.20
2019-01-05T23:29:15.034Z,3.20
2019-01-05T23:31:52.077Z,3.20
2019-01-05T23:34:29.450Z,3.50
2019-01-05T23:37:16.773Z,3.80
2019-01-05T23:40:04.081Z,3.50
2019-01-05T23:42:35.497Z,3.40
2019-01-05T23:45:16.502Z,3.30
2019-01-05T23:47:50.893Z,3.30
2019-01-05T23:50:28.029Z,3.30
2019-01-05T23:53:15.915Z,3.20
2019-01-05T23:55:53.514Z,3.20
2019-01-05T23:58:47.000Z,3.20
